Terminal Aerodrome Forecast
Issued by NWS Grand Forks, ND

Home | Current Version | Previous Version | Graphics & Text | Print | Product List | Glossary On
Versions: 1 2 3 4 5 6 7 8 9 10 11 12 13 14 15 16 17 18
830
FTUS43 KFGF 102340
TAFFAR
TAF
KFAR 102340Z 1100/1124 17005KT P6SM OVC090
     FM110600 20009KT P6SM BKN060
     FM110800 26010KT P6SM BKN060
     FM111000 29012KT P6SM OVC040
     FM111200 32016G24KT P6SM OVC010
     FM111600 34020G30KT 6SM -SN OVC010
     FM111800 34020G30KT P6SM OVC015
     FM112200 34019G28KT P6SM SCT035=

USA.gov is the U.S. government's official web portal to all federal, state and local government web resources and services.